Flight Information

DEPARTURE
CHINO, CA
Elevation:
650
Runways:
3/21 - 4919x150 - ASPH-G
8R/26L - 7000x150 - ASPH-G
8L/26R - 4858x150 - ASPH-G
Active PE Departure:
8L - 8R
Current PE ATIS:
T
Altimeter:
30.24
Remarks:
ATIS:
125.85 909-393-5365
Ground:
121.6
Tower:
118.5
DESTINATION
,
Elevation:
TPA:
1000 (est.)


6757.1 NM74° True-14° Var60° HDG

Flight Plan:
(click to file on line)

1. Type
2. Aircraft Identification
3. Aircraft Type / Special Equipment
4. True Airspeed
kts
5. Departure Airport
(ICAO code)
6. Arriving Airport
(ICAO code)
7. Cruising Altitude
ft
8. Alternate Airport
(ICAO code)
9. Route of Flight
10. Remarks


00:00:00 Departure ATIS: Destination ATIS:

Clearance Limit:
Route:
Altitude: Expect in minutes
Frequency:
Transponder: (7500 Hijack / 7600 Lost Comms / 7700 Emergency)


KCNO 282053Z 10014G22KT 10SM BKN210 21/M12 A3024 RMK AO2 PK WND 08026/2007 SLP237 T02061122 58025
Time: 2022-01-28T20:53:00Z
1643406735
Winds: 100 @ 14 kts
Gusting:22 kts
Visibility: 10.0 sm
Clouds (AGL): BKN 21000
Temperature: 20.6 C
Dew Point: -12.2 C
Pressure: 30.239174 in Hgbr


Notes:

Data extracted from FAA Digital Chart Supplement. Effective: 0901Z Thursday, DEC 2, 2021 to 0901Z Thursday, JAN 27, 2022
Current ATIS data is provided courtisy of PilotEdge.